< < Back
Terminal Aerodrome Forecast


Current Version              Previous Versions:   1  2  3  4  5  6  7  8  9  

Terminal Aerodrome Forecast

581
FTUS42 KFFC 042343
TAFATL
TAF
KATL 042343Z 0500/0606 04003KT P6SM SCT070 SCT250
     FM050500 06004KT P6SM SCT110
     FM051400 08006KT P6SM SCT050
     FM051800 09009KT P6SM BKN050 PROB30 0518/0524 5SM -TSRA
      BKN045CB
     FM060000 09007KT P6SM SCT070 SCT250=

Latest METAR

889
SAUS70 KWBC 050100 RRA
MTRATL
METAR KATL 050052Z 07006KT 10SM FEW150 BKN250 27/18 A3002 RMK AO2 SLP155
T02720183


USA.gov is the U.S. government's official web portal to all federal, state and local government web resources and services.